createdAt,value
2023-11-30T00:00:20.117Z,97596.28
2023-11-30T00:02:47.517Z,97596.63
2023-11-30T00:05:14.767Z,97597.66
2023-11-30T00:07:41.992Z,97585.97
2023-11-30T00:10:09.628Z,97564.31
2023-11-30T00:12:36.761Z,97580.06
2023-11-30T00:15:04.269Z,97579.50
2023-11-30T00:17:33.919Z,97571.50
2023-11-30T00:20:01.149Z,97576.25
2023-11-30T00:22:29.158Z,97577.41
2023-11-30T00:24:56.355Z,97572.88
2023-11-30T00:27:23.424Z,97576.94
2023-11-30T00:29:50.671Z,97560.13
2023-11-30T00:32:17.772Z,97564.66
2023-11-30T00:34:45.397Z,97553.44
2023-11-30T00:37:13.006Z,97556.91
2023-11-30T00:39:40.093Z,97557.13
2023-11-30T00:42:07.610Z,97554.16
2023-11-30T00:44:34.947Z,97552.28
2023-11-30T00:47:02.117Z,97552.88
2023-11-30T00:49:29.330Z,97535.25
2023-11-30T00:51:56.436Z,97551.56
2023-11-30T00:54:23.699Z,97540.91
2023-11-30T00:56:51.051Z,97533.97
2023-11-30T00:59:18.237Z,97519.84
2023-11-30T01:01:45.471Z,97528.66
2023-11-30T01:04:12.782Z,97523.66
2023-11-30T01:06:39.823Z,97527.13
2023-11-30T01:09:08.430Z,97511.94
2023-11-30T01:11:43.127Z,97519.94
2023-11-30T01:14:10.501Z,97519.69
2023-11-30T01:16:37.657Z,97532.78
2023-11-30T01:19:04.934Z,97522.34
2023-11-30T01:21:33.171Z,97509.28
2023-11-30T01:24:00.537Z,97498.88
2023-11-30T01:26:27.921Z,97513.78
2023-11-30T01:28:55.255Z,97520.97
2023-11-30T01:31:22.593Z,97499.09
2023-11-30T01:33:50.960Z,97507.19
2023-11-30T01:36:18.221Z,97499.44
2023-11-30T01:38:45.781Z,97504.75
2023-11-30T01:41:12.927Z,97499.66
2023-11-30T01:43:40.134Z,97490.31
2023-11-30T01:46:07.738Z,97496.44
2023-11-30T01:48:35.654Z,97505.47
2023-11-30T01:51:06.828Z,97497.50
2023-11-30T01:53:37.707Z,97494.25
2023-11-30T01:56:07.277Z,97497.72
2023-11-30T01:58:35.139Z,97486.50
2023-11-30T02:01:02.410Z,97494.25
2023-11-30T02:03:29.920Z,97496.69
2023-11-30T02:05:57.208Z,97500.97
2023-11-30T02:08:24.319Z,97491.91
2023-11-30T02:10:51.556Z,97495.16
2023-11-30T02:13:18.740Z,97495.97
2023-11-30T02:15:46.301Z,97486.09
2023-11-30T02:18:13.773Z,97494.66
2023-11-30T02:21:03.544Z,97490.06
2023-11-30T02:23:30.702Z,97494.91
2023-11-30T02:25:57.789Z,97485.78
2023-11-30T02:28:26.223Z,97491.13
2023-11-30T02:30:53.442Z,97486.03
2023-11-30T02:33:20.744Z,97498.22
2023-11-30T02:35:48.032Z,97480.38
2023-11-30T02:38:15.132Z,97488.03
2023-11-30T02:40:42.275Z,97496.69
2023-11-30T02:43:09.429Z,97487.41
2023-11-30T02:45:36.532Z,97492.97
2023-11-30T02:48:05.912Z,97481.75
2023-11-30T02:50:33.015Z,97486.91
2023-11-30T02:53:00.219Z,97490.38
2023-11-30T02:55:27.290Z,97488.28
2023-11-30T02:57:54.857Z,97485.97
2023-11-30T03:00:22.012Z,97491.06
2023-11-30T03:02:49.206Z,97488.41
2023-11-30T03:05:16.348Z,97486.78
2023-11-30T03:07:43.468Z,97488.41
2023-11-30T03:10:10.612Z,97485.72
2023-11-30T03:12:37.804Z,97475.88
2023-11-30T03:15:05.341Z,97493.47
2023-11-30T03:17:32.688Z,97482.59
2023-11-30T03:19:59.948Z,97488.97
2023-11-30T03:22:27.144Z,97485.81
2023-11-30T03:24:54.190Z,97482.91
2023-11-30T03:27:22.286Z,97490.66
2023-11-30T03:29:49.563Z,97483.22
2023-11-30T03:32:16.685Z,97474.75
2023-11-30T03:34:43.786Z,97483.06
2023-11-30T03:37:11.027Z,97482.31
2023-11-30T03:39:38.137Z,97484.75
2023-11-30T03:42:05.709Z,97478.38
2023-11-30T03:44:32.858Z,97476.28
2023-11-30T03:47:00.863Z,97477.09
2023-11-30T03:49:28.039Z,97479.53
2023-11-30T03:51:55.138Z,97486.72
2023-11-30T03:54:22.243Z,97480.78
2023-11-30T03:56:49.518Z,97477.09
2023-11-30T03:59:16.650Z,97479.53
2023-11-30T04:01:43.755Z,97481.13
2023-11-30T04:04:11.026Z,97466.75
2023-11-30T04:06:38.295Z,97476.94
2023-11-30T04:09:05.525Z,97480.97
2023-11-30T04:11:32.796Z,97474.56
2023-11-30T04:14:07.356Z,97472.22
2023-11-30T04:16:36.596Z,97482.41
2023-11-30T04:19:04.013Z,97477.63
2023-11-30T04:21:32.431Z,97479.00
2023-11-30T04:24:00.009Z,97472.84
2023-11-30T04:26:27.904Z,97485.13
2023-11-30T04:28:55.976Z,97479.25
2023-11-30T04:31:23.653Z,97472.84
2023-11-30T04:33:50.915Z,97477.38
2023-11-30T04:36:18.463Z,97476.56
2023-11-30T04:38:45.602Z,97478.19
2023-11-30T04:41:13.383Z,97470.44
2023-11-30T04:43:41.481Z,97460.34
2023-11-30T04:46:09.379Z,97469.38
2023-11-30T04:48:38.275Z,97467.28
2023-11-30T04:51:06.978Z,97473.97
2023-11-30T04:53:34.391Z,97463.88
2023-11-30T04:56:01.725Z,97474.53
2023-11-30T04:58:29.069Z,97466.31
2023-11-30T05:00:56.700Z,97474.88
2023-11-30T05:03:24.350Z,97472.47
2023-11-30T05:05:51.668Z,97470.91
2023-11-30T05:08:18.709Z,97469.88
2023-11-30T05:10:45.857Z,97476.00
2023-11-30T05:13:13.097Z,97474.94
2023-11-30T05:15:41.126Z,97478.97
2023-11-30T05:18:08.640Z,97466.22
2023-11-30T05:20:36.032Z,97476.06
2023-11-30T05:23:03.145Z,97475.56
2023-11-30T05:25:30.758Z,97475.31
2023-11-30T05:28:02.342Z,97475.88
2023-11-30T05:30:29.549Z,97477.00
2023-11-30T05:32:56.958Z,97472.78
2023-11-30T05:35:24.190Z,97477.06
2023-11-30T05:37:51.604Z,97481.13
2023-11-30T05:40:20.885Z,97477.16
2023-11-30T05:42:49.077Z,97486.78
2023-11-30T05:45:16.602Z,97484.34
2023-11-30T05:47:44.097Z,97482.50
2023-11-30T05:50:11.465Z,97482.81
2023-11-30T05:52:39.841Z,97497.75
2023-11-30T05:55:08.925Z,97492.72
2023-11-30T05:57:37.127Z,97497.81
2023-11-30T06:00:05.151Z,97496.50
2023-11-30T06:02:40.871Z,97496.50
2023-11-30T06:05:09.205Z,97484.22
2023-11-30T06:07:38.329Z,97498.38
2023-11-30T06:10:07.062Z,97492.22
2023-11-30T06:12:34.197Z,97499.69
2023-11-30T06:15:01.534Z,97505.09
2023-11-30T06:17:31.773Z,97489.88
2023-11-30T06:19:59.451Z,97492.84
2023-11-30T06:22:26.636Z,97496.63
2023-11-30T06:24:54.318Z,97493.72
2023-11-30T06:27:21.839Z,97502.88
2023-11-30T06:29:49.194Z,97499.94
2023-11-30T06:32:16.516Z,97502.38
2023-11-30T06:34:43.896Z,97505.84
2023-11-30T06:37:11.112Z,97514.66
2023-11-30T06:39:44.683Z,97518.63
2023-11-30T06:42:14.304Z,97522.66
2023-11-30T06:44:46.313Z,97522.13
2023-11-30T06:47:13.665Z,97519.19
2023-11-30T06:49:43.883Z,97526.69
2023-11-30T06:52:11.019Z,97521.31
2023-11-30T06:54:38.214Z,97535.03
2023-11-30T06:57:08.569Z,97539.06
2023-11-30T06:59:35.739Z,97531.59
2023-11-30T07:02:02.898Z,97539.38
2023-11-30T07:04:32.368Z,97532.16
2023-11-30T07:06:59.604Z,97542.53
2023-11-30T07:09:27.291Z,97547.00
2023-11-30T07:11:54.448Z,97548.56
2023-11-30T07:14:21.537Z,97554.16
2023-11-30T07:16:48.750Z,97558.13
2023-11-30T07:19:15.977Z,97562.06
2023-11-30T07:21:43.211Z,97567.75
2023-11-30T07:24:12.358Z,97565.31
2023-11-30T07:26:40.593Z,97566.03
2023-11-30T07:29:07.866Z,97572.91
2023-11-30T07:31:35.926Z,97575.22
2023-11-30T07:34:04.353Z,97563.66
2023-11-30T07:36:33.600Z,97575.69
2023-11-30T07:39:00.893Z,97580.97
2023-11-30T07:41:28.031Z,97574.72
2023-11-30T07:48:04.949Z,97586.47
2023-11-30T07:50:32.533Z,97589.88
2023-11-30T07:53:00.069Z,97589.31
2023-11-30T07:55:27.154Z,97592.69
2023-11-30T07:57:54.342Z,97593.31
2023-11-30T08:00:23.338Z,97592.69
2023-11-30T08:02:50.500Z,97593.16
2023-11-30T08:05:18.201Z,97600.94
2023-11-30T08:07:45.282Z,97611.91
2023-11-30T08:10:12.341Z,97612.16
2023-11-30T08:12:39.379Z,97608.69
2023-11-30T08:15:08.209Z,97610.78
2023-11-30T08:17:35.421Z,97602.13
2023-11-30T08:20:02.905Z,97616.03
2023-11-30T08:22:32.349Z,97612.78
2023-11-30T08:25:01.383Z,97616.50
2023-11-30T08:27:31.429Z,97610.94
2023-11-30T08:29:58.595Z,97607.53
2023-11-30T08:32:25.925Z,97590.03
2023-11-30T08:34:53.545Z,97613.19
2023-11-30T08:37:20.670Z,97615.06
2023-11-30T08:39:47.898Z,97603.34
2023-11-30T08:42:15.102Z,97607.16
2023-11-30T08:44:42.596Z,97609.25
2023-11-30T08:47:09.751Z,97606.81
2023-11-30T08:49:36.896Z,97601.16
2023-11-30T08:52:04.175Z,97605.38
2023-11-30T08:54:31.288Z,97599.84
2023-11-30T08:56:59.645Z,97610.81
2023-11-30T08:59:26.846Z,97606.31
2023-11-30T09:01:54.024Z,97617.56
2023-11-30T09:04:21.422Z,97608.50
2023-11-30T09:06:48.545Z,97602.03
2023-11-30T09:09:15.754Z,97613.59
2023-11-30T09:11:45.962Z,97615.78
2023-11-30T09:14:13.268Z,97617.66
2023-11-30T09:16:40.346Z,97614.16
2023-11-30T09:19:07.517Z,97619.97
2023-11-30T09:21:34.661Z,97611.31
2023-11-30T09:24:05.043Z,97619.06
2023-11-30T09:26:33.237Z,97608.06
2023-11-30T09:29:04.281Z,97629.78
2023-11-30T09:31:32.277Z,97630.75
2023-11-30T09:33:59.350Z,97626.00
2023-11-30T09:36:26.555Z,97634.47
2023-11-30T09:38:53.649Z,97635.78
2023-11-30T09:41:24.103Z,97647.81
2023-11-30T09:43:51.759Z,97642.81
2023-11-30T09:46:19.101Z,97640.16
2023-11-30T09:48:47.152Z,97636.34
2023-11-30T09:51:20.991Z,97628.34
2023-11-30T09:53:48.127Z,97637.06
2023-11-30T09:56:15.466Z,97639.16
2023-11-30T09:58:43.600Z,97636.72
2023-11-30T10:01:10.765Z,97643.56
2023-11-30T10:03:39.296Z,97644.03
2023-11-30T10:06:07.700Z,97640.91
2023-11-30T10:08:34.849Z,97651.03
2023-11-30T10:11:02.935Z,97651.59
2023-11-30T10:13:29.946Z,97665.91
2023-11-30T10:15:57.093Z,97660.22
2023-11-30T10:18:24.282Z,97657.63
2023-11-30T10:20:51.990Z,97656.09
2023-11-30T10:23:19.010Z,97652.22
2023-11-30T10:25:47.740Z,97650.94
2023-11-30T10:28:15.949Z,97651.19
2023-11-30T10:30:44.690Z,97653.28
2023-11-30T10:33:22.033Z,97654.81
2023-11-30T10:35:51.401Z,97652.88
2023-11-30T10:38:29.180Z,97662.72
2023-11-30T10:41:16.542Z,97665.38
2023-11-30T10:43:50.374Z,97679.75
2023-11-30T10:46:19.290Z,97674.69
2023-11-30T10:48:47.152Z,97683.59
2023-11-30T10:51:14.721Z,97684.88
2023-11-30T10:54:00.495Z,97681.88
2023-11-30T10:56:29.861Z,97689.56
2023-11-30T10:59:00.197Z,97678.72
2023-11-30T11:01:28.427Z,97684.38
2023-11-30T11:03:58.786Z,97681.75
2023-11-30T11:06:26.895Z,97684.47
2023-11-30T11:09:08.807Z,97679.94
2023-11-30T11:11:40.779Z,97690.97
2023-11-30T11:14:08.160Z,97693.66
2023-11-30T11:16:42.776Z,97694.69
2023-11-30T11:19:13.442Z,97696.53
2023-11-30T11:21:42.508Z,97707.41
2023-11-30T11:24:09.906Z,97711.94
2023-11-30T11:26:48.541Z,97703.59
2023-11-30T11:29:21.514Z,97730.28
2023-11-30T11:31:58.030Z,97728.31
2023-11-30T11:34:25.243Z,97728.19
2023-11-30T11:36:52.543Z,97731.56
2023-11-30T11:39:23.174Z,97727.28
2023-11-30T11:41:50.562Z,97733.50
2023-11-30T11:44:17.666Z,97727.47
2023-11-30T11:46:44.765Z,97745.72
2023-11-30T11:49:12.322Z,97749.41
2023-11-30T11:51:44.904Z,97740.28
2023-11-30T11:54:22.514Z,97732.41
2023-11-30T11:56:51.500Z,97748.44
2023-11-30T11:59:23.863Z,97736.84
2023-11-30T12:01:52.302Z,97758.34
2023-11-30T12:04:33.705Z,97761.69
2023-11-30T12:07:13.561Z,97763.28
2023-11-30T12:09:40.711Z,97758.06
2023-11-30T12:12:08.962Z,97769.75
2023-11-30T12:14:36.437Z,97758.75
2023-11-30T12:17:03.588Z,97766.81
2023-11-30T12:19:34.064Z,97766.41
2023-11-30T12:22:01.130Z,97773.22
2023-11-30T12:24:28.293Z,97771.81
2023-11-30T12:26:55.434Z,97770.06
2023-11-30T12:29:22.595Z,97774.19
2023-11-30T12:31:50.080Z,97774.88
2023-11-30T12:34:17.350Z,97771.84
2023-11-30T12:36:44.709Z,97782.88
2023-11-30T12:39:15.287Z,97779.88
2023-11-30T12:41:43.913Z,97784.59
2023-11-30T12:44:11.001Z,97785.19
2023-11-30T12:46:39.351Z,97781.47
2023-11-30T12:49:06.380Z,97796.59
2023-11-30T12:51:33.460Z,97796.16
2023-11-30T12:54:01.108Z,97793.31
2023-11-30T12:56:28.934Z,97803.13
2023-11-30T12:58:56.167Z,97803.97
2023-11-30T13:01:23.439Z,97804.44
2023-11-30T13:03:50.768Z,97803.03
2023-11-30T13:06:18.401Z,97797.94
2023-11-30T13:08:45.511Z,97810.03
2023-11-30T13:11:12.522Z,97805.16
2023-11-30T13:13:42.551Z,97817.84
2023-11-30T13:16:13.254Z,97810.53
2023-11-30T13:18:40.542Z,97813.41
2023-11-30T13:21:07.879Z,97809.13
2023-11-30T13:23:34.860Z,97807.72
2023-11-30T13:26:01.882Z,97811.25
2023-11-30T13:28:37.837Z,97812.72
2023-11-30T13:31:10.132Z,97814.56
2023-11-30T13:33:40.504Z,97818.25
2023-11-30T13:36:08.521Z,97818.44
2023-11-30T13:38:36.501Z,97829.06
2023-11-30T13:41:04.376Z,97817.44
2023-11-30T13:43:31.451Z,97820.66
2023-11-30T13:45:58.634Z,97840.06
2023-11-30T13:48:25.664Z,97836.00
2023-11-30T13:50:56.520Z,97826.41
2023-11-30T13:53:29.586Z,97834.59
2023-11-30T13:55:57.878Z,97846.25
2023-11-30T13:58:25.776Z,97834.59
2023-11-30T14:00:53.378Z,97830.91
2023-11-30T14:03:21.783Z,97843.59
2023-11-30T14:05:48.956Z,97843.00
2023-11-30T14:08:17.148Z,97849.53
2023-11-30T14:10:44.261Z,97843.44
2023-11-30T14:13:11.696Z,97849.16
2023-11-30T14:15:38.802Z,97845.13
2023-11-30T14:18:06.042Z,97845.91
2023-11-30T14:20:35.745Z,97851.63
2023-11-30T14:23:04.682Z,97855.75
2023-11-30T14:25:31.812Z,97843.56
2023-11-30T14:28:04.910Z,97852.56
2023-11-30T14:30:36.659Z,97859.69
2023-11-30T14:33:04.086Z,97859.47
2023-11-30T14:35:31.267Z,97864.72
2023-11-30T14:37:58.380Z,97854.94
2023-11-30T14:40:25.605Z,97865.94
2023-11-30T14:42:52.857Z,97857.75
2023-11-30T14:45:19.896Z,97856.94
2023-11-30T14:47:47.995Z,97855.09
2023-11-30T14:50:17.055Z,97866.13
2023-11-30T14:52:47.355Z,97870.81
2023-11-30T14:55:14.925Z,97862.03
2023-11-30T14:57:43.494Z,97863.28
2023-11-30T15:00:16.224Z,97878.59
2023-11-30T15:02:43.846Z,97871.44
2023-11-30T15:05:14.906Z,97872.03
2023-11-30T15:07:42.885Z,97863.06
2023-11-30T15:10:12.660Z,97875.50
2023-11-30T15:12:40.282Z,97885.31
2023-11-30T15:15:15.541Z,97872.03
2023-11-30T15:17:48.157Z,97880.81
2023-11-30T15:20:16.694Z,97889.81
2023-11-30T15:22:45.247Z,97892.47
2023-11-30T15:25:18.809Z,97900.19
2023-11-30T15:27:48.001Z,97892.47
2023-11-30T15:30:16.706Z,97890.84
2023-11-30T15:32:44.125Z,97895.31
2023-11-30T15:35:11.294Z,97891.47
2023-11-30T15:37:38.509Z,97905.97
2023-11-30T15:40:12.141Z,97915.41
2023-11-30T15:42:39.916Z,97923.56
2023-11-30T15:45:11.723Z,97908.47
2023-11-30T15:47:40.894Z,97920.69
2023-11-30T15:50:08.685Z,97909.28
2023-11-30T15:52:35.719Z,97908.47
2023-11-30T15:55:02.899Z,97914.38
2023-11-30T15:57:30.967Z,97909.88
2023-11-30T15:59:58.246Z,97913.56
2023-11-30T16:02:25.288Z,97923.56
2023-11-30T16:04:52.794Z,97921.56
2023-11-30T16:07:19.850Z,97914.03
2023-11-30T16:09:46.993Z,97911.81
2023-11-30T16:12:14.326Z,97925.88
2023-11-30T16:14:41.619Z,97913.44
2023-11-30T16:17:11.761Z,97925.88
2023-11-30T16:19:39.143Z,97918.31
2023-11-30T16:22:06.324Z,97914.09
2023-11-30T16:24:33.602Z,97917.94
2023-11-30T16:27:00.917Z,97918.97
2023-11-30T16:29:27.938Z,97910.19
2023-11-30T16:31:55.214Z,97918.75
2023-11-30T16:34:23.501Z,97918.97
2023-11-30T16:36:50.665Z,97922.84
2023-11-30T16:39:18.294Z,97932.88
2023-11-30T16:41:45.557Z,97927.56
2023-11-30T16:44:13.085Z,97927.97
2023-11-30T16:46:40.734Z,97923.09
2023-11-30T16:49:08.297Z,97931.06
2023-11-30T16:51:36.861Z,97928.41
2023-11-30T16:54:05.207Z,97928.03
2023-11-30T16:56:39.923Z,97924.34
2023-11-30T16:59:07.140Z,97931.47
2023-11-30T17:01:37.622Z,97934.56
2023-11-30T17:04:05.608Z,97923.16
2023-11-30T17:06:33.118Z,97933.97
2023-11-30T17:09:00.391Z,97934.97
2023-11-30T17:11:29.805Z,97947.44
2023-11-30T17:13:57.465Z,97937.22
2023-11-30T17:16:24.675Z,97937.44
2023-11-30T17:18:52.357Z,97938.44
2023-11-30T17:21:19.580Z,97936.81
2023-11-30T17:23:58.424Z,97949.06
2023-11-30T17:26:26.609Z,97951.09
2023-11-30T17:28:53.753Z,97941.94
2023-11-30T17:31:20.836Z,97954.97
2023-11-30T17:33:48.287Z,97953.97
2023-11-30T17:36:15.636Z,97947.84
2023-11-30T17:38:42.928Z,97957.63
2023-11-30T17:41:11.193Z,97956.19
2023-11-30T17:43:38.698Z,97950.28
2023-11-30T17:46:10.005Z,97953.97
2023-11-30T17:48:47.161Z,97951.31
2023-11-30T17:51:19.316Z,97961.09
2023-11-30T17:53:47.727Z,97962.13
2023-11-30T17:56:14.930Z,97963.97
2023-11-30T17:58:42.097Z,97950.31
2023-11-30T18:01:09.354Z,97957.88
2023-11-30T18:03:36.597Z,97961.53
2023-11-30T18:06:05.223Z,97963.19
2023-11-30T18:08:32.432Z,97974.38
2023-11-30T18:10:59.495Z,97974.97
2023-11-30T18:13:26.701Z,97972.75
2023-11-30T18:15:56.103Z,97971.94
2023-11-30T18:18:23.604Z,97977.84
2023-11-30T18:20:51.139Z,97978.66
2023-11-30T18:23:18.242Z,97974.59
2023-11-30T18:25:45.537Z,97974.78
2023-11-30T18:28:13.012Z,97980.09
2023-11-30T18:30:40.256Z,97989.88
2023-11-30T18:33:09.311Z,97994.97
2023-11-30T18:35:36.632Z,98003.34
2023-11-30T18:38:05.159Z,98004.16
2023-11-30T18:40:32.371Z,97998.03
2023-11-30T18:42:59.601Z,97998.06
2023-11-30T18:45:28.218Z,98000.28
2023-11-30T18:47:58.135Z,98001.91
2023-11-30T18:50:25.378Z,98013.75
2023-11-30T18:52:53.425Z,98017.41
2023-11-30T18:55:20.557Z,98018.44
2023-11-30T18:57:53.910Z,98021.91
2023-11-30T19:00:21.408Z,98018.66
2023-11-30T19:02:51.504Z,98023.72
2023-11-30T19:05:21.630Z,98029.44
2023-11-30T19:07:48.850Z,98030.47
2023-11-30T19:10:16.669Z,98031.69
2023-11-30T19:12:44.656Z,98024.97
2023-11-30T19:15:12.073Z,98031.91
2023-11-30T19:17:49.467Z,98026.59
2023-11-30T19:20:17.212Z,98038.22
2023-11-30T19:22:44.394Z,98031.28
2023-11-30T19:25:11.529Z,98053.50
2023-11-30T19:27:38.798Z,98049.84
2023-11-30T19:30:06.454Z,98048.19
2023-11-30T19:32:33.602Z,98049.84
2023-11-30T19:35:00.744Z,98046.16
2023-11-30T19:37:27.802Z,98049.22
2023-11-30T19:39:54.958Z,98059.00
2023-11-30T19:42:24.347Z,98068.97
2023-11-30T19:44:51.426Z,98071.63
2023-11-30T19:47:19.035Z,98070.81
2023-11-30T19:49:46.379Z,98080.59
2023-11-30T19:52:13.524Z,98077.13
2023-11-30T19:54:40.705Z,98082.22
2023-11-30T19:57:07.882Z,98085.09
2023-11-30T19:59:35.229Z,98083.06
2023-11-30T20:02:02.528Z,98085.50
2023-11-30T20:04:29.835Z,98079.38
2023-11-30T20:06:58.274Z,98087.31
2023-11-30T20:09:25.424Z,98096.09
2023-11-30T20:11:52.563Z,98092.63
2023-11-30T20:14:19.709Z,98095.69
2023-11-30T20:16:47.004Z,98089.56
2023-11-30T20:19:14.470Z,98092.63
2023-11-30T20:21:41.580Z,98099.13
2023-11-30T20:24:08.889Z,98099.13
2023-11-30T20:26:40.212Z,98101.16
2023-11-30T20:29:08.004Z,98093.66
2023-11-30T20:31:35.353Z,98110.38
2023-11-30T20:34:04.094Z,98117.09
2023-11-30T20:36:31.450Z,98120.97
2023-11-30T20:38:58.617Z,98118.09
2023-11-30T20:41:25.809Z,98134.19
2023-11-30T20:43:54.436Z,98124.22
2023-11-30T20:46:21.829Z,98123.41
2023-11-30T20:48:49.323Z,98117.69
2023-11-30T20:51:20.302Z,98124.00
2023-11-30T20:53:47.472Z,98121.56
2023-11-30T20:56:14.801Z,98129.53
2023-11-30T20:58:44.641Z,98138.28
2023-11-30T21:01:12.271Z,98130.53
2023-11-30T21:03:40.039Z,98138.91
2023-11-30T21:06:07.716Z,98133.59
2023-11-30T21:08:34.830Z,98149.50
2023-11-30T21:11:02.612Z,98149.28
2023-11-30T21:13:32.011Z,98145.81
2023-11-30T21:15:59.576Z,98138.91
2023-11-30T21:18:26.940Z,98134.41
2023-11-30T21:20:54.303Z,98144.59
2023-11-30T21:23:21.889Z,98146.22
2023-11-30T21:25:49.043Z,98148.69
2023-11-30T21:28:16.364Z,98151.94
2023-11-30T21:30:43.519Z,98139.72
2023-11-30T21:33:10.795Z,98146.63
2023-11-30T21:35:38.098Z,98151.31
2023-11-30T21:38:05.133Z,98153.16
2023-11-30T21:40:34.387Z,98143.19
2023-11-30T21:43:01.559Z,98157.66
2023-11-30T21:45:28.985Z,98153.16
2023-11-30T21:47:56.147Z,98147.47
2023-11-30T21:50:24.842Z,98151.53
2023-11-30T21:52:52.746Z,98153.78
2023-11-30T21:55:20.002Z,98157.25
2023-11-30T21:57:47.310Z,98153.97
2023-11-30T22:00:17.270Z,98164.19
2023-11-30T22:02:46.114Z,98151.31
2023-11-30T22:05:23.577Z,98158.66
2023-11-30T22:07:54.443Z,98157.22
2023-11-30T22:10:21.634Z,98158.44
2023-11-30T22:12:48.844Z,98161.09
2023-11-30T22:15:15.934Z,98168.84
2023-11-30T22:17:43.078Z,98164.16
2023-11-30T22:20:10.791Z,98169.03
2023-11-30T22:22:37.929Z,98166.00
2023-11-30T22:25:05.550Z,98172.94
2023-11-30T22:27:32.703Z,98180.88
2023-11-30T22:29:59.999Z,98176.41
2023-11-30T22:32:27.181Z,98181.50
2023-11-30T22:34:54.246Z,98183.13
2023-11-30T22:37:21.424Z,98184.97
2023-11-30T22:39:48.680Z,98189.44
2023-11-30T22:42:16.052Z,98190.47
2023-11-30T22:44:43.288Z,98181.66
2023-11-30T22:47:10.349Z,98184.72
2023-11-30T22:49:37.906Z,98187.59
2023-11-30T22:52:05.217Z,98189.41
2023-11-30T22:54:33.204Z,98188.00
2023-11-30T22:57:00.414Z,98183.91
2023-11-30T22:59:28.879Z,98182.91
2023-11-30T23:01:56.256Z,98181.25
2023-11-30T23:04:24.766Z,98190.44
2023-11-30T23:06:52.123Z,98186.38
2023-11-30T23:09:19.319Z,98192.72
2023-11-30T23:11:46.547Z,98196.78
2023-11-30T23:14:14.314Z,98191.28
2023-11-30T23:16:41.851Z,98204.31
2023-11-30T23:19:09.206Z,98188.63
2023-11-30T23:21:36.303Z,98198.00
2023-11-30T23:24:03.516Z,98197.41
2023-11-30T23:26:30.581Z,98194.75
2023-11-30T23:28:58.070Z,98203.50
2023-11-30T23:31:25.301Z,98193.13
2023-11-30T23:33:52.446Z,98196.19
2023-11-30T23:36:19.685Z,98197.38
2023-11-30T23:38:47.089Z,98198.38
2023-11-30T23:41:14.203Z,98201.03
2023-11-30T23:43:41.280Z,98208.38
2023-11-30T23:46:09.622Z,98201.44
2023-11-30T23:48:36.824Z,98215.09
2023-11-30T23:51:04.223Z,98207.97
2023-11-30T23:53:31.296Z,98196.13
2023-11-30T23:55:58.366Z,98197.78
2023-11-30T23:58:25.482Z,98207.56
